sensor_id;sensor_type;location;lat;lon;timestamp;pressure;altitude;pressure_sealevel;temperature;humidity
56400;BME280;42298;53.638;9.876;2022-09-11T00:00:17;101321.81;;;18.55;74.41
56400;BME280;42298;53.638;9.876;2022-09-11T00:02:43;101327.75;;;18.54;74.44
56400;BME280;42298;53.638;9.876;2022-09-11T00:05:08;101369.81;;;18.73;74.71
56400;BME280;42298;53.638;9.876;2022-09-11T00:07:34;101337.50;;;18.60;75.19
56400;BME280;42298;53.638;9.876;2022-09-11T00:09:59;101317.84;;;18.56;74.87
56400;BME280;42298;53.638;9.876;2022-09-11T00:12:25;101367.84;;;18.73;74.94
56400;BME280;42298;53.638;9.876;2022-09-11T00:14:50;101362.97;;;18.70;75.36
56400;BME280;42298;53.638;9.876;2022-09-11T00:17:16;101353.66;;;18.66;75.14
56400;BME280;42298;53.638;9.876;2022-09-11T00:19:42;101370.72;;;18.77;75.62
56400;BME280;42298;53.638;9.876;2022-09-11T00:22:07;101326.56;;;18.55;75.12
56400;BME280;42298;53.638;9.876;2022-09-11T00:24:33;101348.31;;;18.73;75.07
56400;BME280;42298;53.638;9.876;2022-09-11T00:26:58;101330.88;;;18.64;74.60
56400;BME280;42298;53.638;9.876;2022-09-11T00:29:25;101343.31;;;18.67;74.92
56400;BME280;42298;53.638;9.876;2022-09-11T00:31:50;101352.16;;;18.69;74.50
56400;BME280;42298;53.638;9.876;2022-09-11T00:34:16;101357.97;;;18.76;75.11
56400;BME280;42298;53.638;9.876;2022-09-11T00:36:41;101349.94;;;18.62;74.77
56400;BME280;42298;53.638;9.876;2022-09-11T00:39:11;101320.06;;;18.39;75.32
56400;BME280;42298;53.638;9.876;2022-09-11T00:41:39;101348.53;;;18.44;75.70
56400;BME280;42298;53.638;9.876;2022-09-11T00:51:59;101371.22;;;18.55;75.87
56400;BME280;42298;53.638;9.876;2022-09-11T00:54:30;101342.84;;;18.41;75.60
56400;BME280;42298;53.638;9.876;2022-09-11T00:56:59;101366.31;;;18.52;75.93
56400;BME280;42298;53.638;9.876;2022-09-11T00:59:28;101349.34;;;18.45;75.29
56400;BME280;42298;53.638;9.876;2022-09-11T01:01:55;101328.28;;;18.35;75.18
56400;BME280;42298;53.638;9.876;2022-09-11T01:04:21;101363.75;;;18.59;75.22
56400;BME280;42298;53.638;9.876;2022-09-11T01:06:53;101358.66;;;18.61;74.71
56400;BME280;42298;53.638;9.876;2022-09-11T01:09:20;101352.59;;;18.59;74.99
56400;BME280;42298;53.638;9.876;2022-09-11T01:11:53;101331.44;;;18.46;74.20
56400;BME280;42298;53.638;9.876;2022-09-11T01:15:01;101339.69;;;18.54;74.27
56400;BME280;42298;53.638;9.876;2022-09-11T01:17:51;101384.81;;;18.80;74.44
56400;BME280;42298;53.638;9.876;2022-09-11T01:23:33;101373.06;;;18.87;73.71
56400;BME280;42298;53.638;9.876;2022-09-11T01:26:44;101386.19;;;18.98;73.39
56400;BME280;42298;53.638;9.876;2022-09-11T01:34:34;101349.34;;;18.81;73.17
56400;BME280;42298;53.638;9.876;2022-09-11T01:37:07;101393.19;;;19.05;73.50
56400;BME280;42298;53.638;9.876;2022-09-11T01:39:39;101373.50;;;19.01;72.93
56400;BME280;42298;53.638;9.876;2022-09-11T01:42:12;101360.38;;;18.89;72.70
56400;BME280;42298;53.638;9.876;2022-09-11T01:44:46;101363.66;;;18.79;73.83
56400;BME280;42298;53.638;9.876;2022-09-11T01:47:16;101353.56;;;18.75;73.61
56400;BME280;42298;53.638;9.876;2022-09-11T01:50:05;101381.88;;;19.01;73.63
56400;BME280;42298;53.638;9.876;2022-09-11T01:52:51;101371.22;;;18.79;73.52
56400;BME280;42298;53.638;9.876;2022-09-11T02:00:21;101355.38;;;18.59;73.99
56400;BME280;42298;53.638;9.876;2022-09-11T02:02:53;101403.53;;;18.80;74.59
56400;BME280;42298;53.638;9.876;2022-09-11T02:05:31;101386.78;;;18.68;74.94
56400;BME280;42298;53.638;9.876;2022-09-11T02:08:02;101376.31;;;18.53;75.02
56400;BME280;42298;53.638;9.876;2022-09-11T02:10:43;101409.22;;;18.59;75.01
56400;BME280;42298;53.638;9.876;2022-09-11T02:13:13;101380.94;;;18.37;75.62
56400;BME280;42298;53.638;9.876;2022-09-11T02:15:43;101404.66;;;18.43;76.00
56400;BME280;42298;53.638;9.876;2022-09-11T02:18:19;101358.91;;;18.11;76.62
56400;BME280;42298;53.638;9.876;2022-09-11T02:20:49;101398.81;;;18.36;76.81
56400;BME280;42298;53.638;9.876;2022-09-11T02:23:15;101382.41;;;18.22;76.06
56400;BME280;42298;53.638;9.876;2022-09-11T02:25:41;101412.59;;;18.41;76.19
56400;BME280;42298;53.638;9.876;2022-09-11T02:28:06;101391.13;;;18.21;76.61
56400;BME280;42298;53.638;9.876;2022-09-11T02:30:32;101385.69;;;18.24;76.89
56400;BME280;42298;53.638;9.876;2022-09-11T02:32:57;101371.94;;;18.19;76.46
56400;BME280;42298;53.638;9.876;2022-09-11T02:35:27;101392.88;;;18.25;76.67
56400;BME280;42298;53.638;9.876;2022-09-11T02:38:03;101381.94;;;18.20;77.07
56400;BME280;42298;53.638;9.876;2022-09-11T02:40:43;101421.97;;;18.48;76.86
56400;BME280;42298;53.638;9.876;2022-09-11T02:46:07;101410.19;;;18.31;77.22
56400;BME280;42298;53.638;9.876;2022-09-11T02:54:26;101391.84;;;18.30;77.62
56400;BME280;42298;53.638;9.876;2022-09-11T02:57:16;101430.72;;;18.59;76.41
56400;BME280;42298;53.638;9.876;2022-09-11T02:59:52;101432.81;;;18.62;76.56
56400;BME280;42298;53.638;9.876;2022-09-11T03:02:19;101420.50;;;18.63;76.55
56400;BME280;42298;53.638;9.876;2022-09-11T03:04:45;101431.22;;;18.73;76.05
56400;BME280;42298;53.638;9.876;2022-09-11T03:07:10;101388.16;;;18.50;75.92
56400;BME280;42298;53.638;9.876;2022-09-11T03:09:36;101435.19;;;18.84;76.08
56400;BME280;42298;53.638;9.876;2022-09-11T03:12:02;101436.59;;;18.90;75.86
56400;BME280;42298;53.638;9.876;2022-09-11T03:14:28;101429.25;;;18.85;75.41
56400;BME280;42298;53.638;9.876;2022-09-11T03:16:54;101429.69;;;18.87;75.69
56400;BME280;42298;53.638;9.876;2022-09-11T03:19:21;101395.41;;;18.63;75.43
56400;BME280;42298;53.638;9.876;2022-09-11T03:21:46;101419.47;;;18.79;75.60
56400;BME280;42298;53.638;9.876;2022-09-11T03:24:12;101412.59;;;18.77;75.58
56400;BME280;42298;53.638;9.876;2022-09-11T03:26:38;101399.59;;;18.69;75.08
56400;BME280;42298;53.638;9.876;2022-09-11T03:29:03;101431.22;;;18.85;75.39
56400;BME280;42298;53.638;9.876;2022-09-11T03:31:29;101438.88;;;18.76;75.88
56400;BME280;42298;53.638;9.876;2022-09-11T03:33:54;101438.88;;;18.76;76.32
56400;BME280;42298;53.638;9.876;2022-09-11T03:36:20;101411.88;;;18.56;75.96
56400;BME280;42298;53.638;9.876;2022-09-11T03:38:46;101420.25;;;18.56;76.13
56400;BME280;42298;53.638;9.876;2022-09-11T03:41:13;101429.94;;;18.58;76.14
56400;BME280;42298;53.638;9.876;2022-09-11T03:43:38;101443.75;;;18.67;76.31
56400;BME280;42298;53.638;9.876;2022-09-11T03:46:04;101437.34;;;18.66;76.07
56400;BME280;42298;53.638;9.876;2022-09-11T03:48:30;101456.91;;;18.78;75.88
56400;BME280;42298;53.638;9.876;2022-09-11T03:50:55;101422.69;;;18.57;76.03
56400;BME280;42298;53.638;9.876;2022-09-11T03:53:23;101452.50;;;18.77;75.74
56400;BME280;42298;53.638;9.876;2022-09-11T03:55:49;101433.78;;;18.66;76.15
56400;BME280;42298;53.638;9.876;2022-09-11T03:58:15;101434.47;;;18.63;75.95
56400;BME280;42298;53.638;9.876;2022-09-11T04:00:43;101445.72;;;18.66;76.32
56400;BME280;42298;53.638;9.876;2022-09-11T04:03:09;101398.28;;;18.42;75.99
56400;BME280;42298;53.638;9.876;2022-09-11T04:05:35;101420.59;;;18.54;75.71
56400;BME280;42298;53.638;9.876;2022-09-11T04:08:02;101436.78;;;18.61;76.16
56400;BME280;42298;53.638;9.876;2022-09-11T04:10:28;101442.47;;;18.52;76.45
56400;BME280;42298;53.638;9.876;2022-09-11T04:12:53;101402.16;;;18.29;76.65
56400;BME280;42298;53.638;9.876;2022-09-11T04:15:19;101437.44;;;18.46;76.89
56400;BME280;42298;53.638;9.876;2022-09-11T04:17:44;101422.72;;;18.45;76.37
56400;BME280;42298;53.638;9.876;2022-09-11T04:20:10;101423.97;;;18.48;76.53
56400;BME280;42298;53.638;9.876;2022-09-11T04:22:35;101429.44;;;18.44;76.26
56400;BME280;42298;53.638;9.876;2022-09-11T04:25:01;101428.72;;;18.47;76.75
56400;BME280;42298;53.638;9.876;2022-09-11T04:27:26;101464.22;;;18.71;76.21
56400;BME280;42298;53.638;9.876;2022-09-11T04:29:52;101465.53;;;18.73;76.58
56400;BME280;42298;53.638;9.876;2022-09-11T04:32:17;101449.47;;;18.70;76.07
56400;BME280;42298;53.638;9.876;2022-09-11T04:34:43;101444.09;;;18.53;75.80
56400;BME280;42298;53.638;9.876;2022-09-11T04:37:08;101473.88;;;18.61;76.54
56400;BME280;42298;53.638;9.876;2022-09-11T04:39:34;101430.47;;;18.40;76.54
56400;BME280;42298;53.638;9.876;2022-09-11T04:41:59;101465.16;;;18.63;76.39
56400;BME280;42298;53.638;9.876;2022-09-11T04:44:26;101472.72;;;18.62;76.13
56400;BME280;42298;53.638;9.876;2022-09-11T04:46:52;101451.75;;;18.44;76.51
56400;BME280;42298;53.638;9.876;2022-09-11T04:49:17;101453.75;;;18.44;76.28
56400;BME280;42298;53.638;9.876;2022-09-11T04:51:42;101443.44;;;18.36;76.72
56400;BME280;42298;53.638;9.876;2022-09-11T04:54:17;101474.19;;;18.48;77.08
56400;BME280;42298;53.638;9.876;2022-09-11T04:56:43;101481.50;;;18.40;77.01
56400;BME280;42298;53.638;9.876;2022-09-11T04:59:16;101484.88;;;18.46;76.71
56400;BME280;42298;53.638;9.876;2022-09-11T05:01:42;101484.28;;;18.40;76.73
56400;BME280;42298;53.638;9.876;2022-09-11T05:04:15;101470.75;;;18.30;77.11
56400;BME280;42298;53.638;9.876;2022-09-11T05:06:41;101481.56;;;18.32;77.11
56400;BME280;42298;53.638;9.876;2022-09-11T05:09:09;101469.19;;;18.21;76.53
56400;BME280;42298;53.638;9.876;2022-09-11T05:11:35;101512.66;;;18.54;77.33
56400;BME280;42298;53.638;9.876;2022-09-11T05:14:02;101512.25;;;18.64;76.66
56400;BME280;42298;53.638;9.876;2022-09-11T05:16:30;101486.41;;;18.55;75.92
56400;BME280;42298;53.638;9.876;2022-09-11T05:18:59;101504.09;;;18.59;75.66
56400;BME280;42298;53.638;9.876;2022-09-11T05:21:26;101517.13;;;18.67;75.61
56400;BME280;42298;53.638;9.876;2022-09-11T05:23:57;101478.16;;;18.47;76.00
56400;BME280;42298;53.638;9.876;2022-09-11T05:26:26;101484.75;;;18.54;76.12
56400;BME280;42298;53.638;9.876;2022-09-11T05:28:53;101500.63;;;18.74;75.82
56400;BME280;42298;53.638;9.876;2022-09-11T05:31:19;101488.63;;;18.74;75.63
56400;BME280;42298;53.638;9.876;2022-09-11T05:33:46;101519.03;;;18.99;75.27
56400;BME280;42298;53.638;9.876;2022-09-11T05:36:15;101506.38;;;18.90;74.58
56400;BME280;42298;53.638;9.876;2022-09-11T05:38:41;101491.56;;;18.77;74.69
56400;BME280;42298;53.638;9.876;2022-09-11T05:41:09;101518.47;;;18.94;75.08
56400;BME280;42298;53.638;9.876;2022-09-11T05:43:36;101495.91;;;18.87;74.60
56400;BME280;42298;53.638;9.876;2022-09-11T05:46:02;101535.44;;;19.13;74.36
56400;BME280;42298;53.638;9.876;2022-09-11T05:48:29;101511.69;;;18.95;74.76
56400;BME280;42298;53.638;9.876;2022-09-11T05:50:57;101513.59;;;19.03;74.96
56400;BME280;42298;53.638;9.876;2022-09-11T05:53:24;101523.22;;;19.06;73.98
56400;BME280;42298;53.638;9.876;2022-09-11T05:55:49;101539.19;;;19.17;74.08
56400;BME280;42298;53.638;9.876;2022-09-11T05:58:16;101502.63;;;18.98;73.85
56400;BME280;42298;53.638;9.876;2022-09-11T06:00:42;101530.34;;;19.15;73.58
56400;BME280;42298;53.638;9.876;2022-09-11T06:03:13;101523.00;;;18.98;73.43
56400;BME280;42298;53.638;9.876;2022-09-11T06:05:39;101539.19;;;19.05;73.65
56400;BME280;42298;53.638;9.876;2022-09-11T06:08:06;101543.94;;;19.05;73.65
56400;BME280;42298;53.638;9.876;2022-09-11T06:10:31;101526.47;;;18.83;73.53
56400;BME280;42298;53.638;9.876;2022-09-11T06:12:56;101551.63;;;19.08;73.65
56400;BME280;42298;53.638;9.876;2022-09-11T06:15:22;101566.97;;;19.02;73.87
56400;BME280;42298;53.638;9.876;2022-09-11T06:17:47;101542.31;;;19.04;73.61
56400;BME280;42298;53.638;9.876;2022-09-11T06:20:12;101547.22;;;19.07;73.60
56400;BME280;42298;53.638;9.876;2022-09-11T06:22:38;101558.50;;;19.22;73.61
56400;BME280;42298;53.638;9.876;2022-09-11T06:25:03;101563.69;;;19.32;73.50
56400;BME280;42298;53.638;9.876;2022-09-11T06:27:29;101536.16;;;19.10;72.50
56400;BME280;42298;53.638;9.876;2022-09-11T06:29:55;101538.84;;;19.07;72.62
56400;BME280;42298;53.638;9.876;2022-09-11T06:32:23;101553.38;;;19.12;72.99
56400;BME280;42298;53.638;9.876;2022-09-11T06:34:48;101560.50;;;19.22;73.31
56400;BME280;42298;53.638;9.876;2022-09-11T06:37:13;101578.91;;;19.35;72.87
56400;BME280;42298;53.638;9.876;2022-09-11T06:39:39;101583.47;;;19.39;72.80
56400;BME280;42298;53.638;9.876;2022-09-11T06:42:04;101579.16;;;19.42;73.00
56400;BME280;42298;53.638;9.876;2022-09-11T06:44:31;101587.44;;;19.38;72.58
56400;BME280;42298;53.638;9.876;2022-09-11T06:46:57;101583.69;;;19.34;72.59
56400;BME280;42298;53.638;9.876;2022-09-11T06:49:23;101580.88;;;19.34;72.05
56400;BME280;42298;53.638;9.876;2022-09-11T06:51:48;101583.59;;;19.31;72.95
56400;BME280;42298;53.638;9.876;2022-09-11T06:54:14;101588.22;;;19.39;72.85
56400;BME280;42298;53.638;9.876;2022-09-11T06:56:40;101556.09;;;19.33;72.53
56400;BME280;42298;53.638;9.876;2022-09-11T06:59:06;101555.75;;;19.46;72.24
56400;BME280;42298;53.638;9.876;2022-09-11T07:01:31;101550.84;;;19.55;72.83
56400;BME280;42298;53.638;9.876;2022-09-11T07:03:57;101539.69;;;19.55;73.36
56400;BME280;42298;53.638;9.876;2022-09-11T07:06:25;101551.75;;;19.71;72.56
56400;BME280;42298;53.638;9.876;2022-09-11T07:08:53;101574.44;;;19.94;71.70
56400;BME280;42298;53.638;9.876;2022-09-11T07:11:20;101572.69;;;20.01;71.14
56400;BME280;42298;53.638;9.876;2022-09-11T07:13:45;101585.25;;;20.19;71.93
56400;BME280;42298;53.638;9.876;2022-09-11T07:16:12;101567.09;;;20.13;70.96
56400;BME280;42298;53.638;9.876;2022-09-11T07:18:39;101579.97;;;20.30;70.86
56400;BME280;42298;53.638;9.876;2022-09-11T07:21:06;101594.75;;;20.42;70.60
56400;BME280;42298;53.638;9.876;2022-09-11T07:23:33;101597.53;;;20.42;70.49
56400;BME280;42298;53.638;9.876;2022-09-11T07:26:07;101565.16;;;20.41;69.97
56400;BME280;42298;53.638;9.876;2022-09-11T07:28:34;101589.28;;;20.61;70.31
56400;BME280;42298;53.638;9.876;2022-09-11T07:31:13;101599.41;;;20.94;69.44
56400;BME280;42298;53.638;9.876;2022-09-11T07:33:41;101601.72;;;21.04;67.12
56400;BME280;42298;53.638;9.876;2022-09-11T07:36:17;101607.13;;;21.12;66.84
56400;BME280;42298;53.638;9.876;2022-09-11T07:38:44;101600.19;;;21.22;66.96
56400;BME280;42298;53.638;9.876;2022-09-11T07:41:11;101593.97;;;21.28;66.58
56400;BME280;42298;53.638;9.876;2022-09-11T07:43:38;101566.56;;;21.06;66.30
56400;BME280;42298;53.638;9.876;2022-09-11T07:46:05;101612.75;;;21.28;66.06
56400;BME280;42298;53.638;9.876;2022-09-11T07:48:30;101600.66;;;21.24;65.61
56400;BME280;42298;53.638;9.876;2022-09-11T07:50:58;101608.25;;;21.23;65.94
56400;BME280;42298;53.638;9.876;2022-09-11T07:53:48;101613.41;;;21.37;65.88
56400;BME280;42298;53.638;9.876;2022-09-11T07:56:17;101610.06;;;21.31;65.62
56400;BME280;42298;53.638;9.876;2022-09-11T07:58:43;101616.19;;;21.21;65.50
56400;BME280;42298;53.638;9.876;2022-09-11T08:01:12;101617.97;;;21.14;66.12
56400;BME280;42298;53.638;9.876;2022-09-11T08:03:38;101593.34;;;20.92;65.83
56400;BME280;42298;53.638;9.876;2022-09-11T08:06:12;101626.19;;;21.07;65.99
56400;BME280;42298;53.638;9.876;2022-09-11T08:08:41;101600.84;;;20.88;65.75
56400;BME280;42298;53.638;9.876;2022-09-11T08:11:10;101633.13;;;20.97;65.73
56400;BME280;42298;53.638;9.876;2022-09-11T08:13:39;101625.69;;;20.89;66.01
56400;BME280;42298;53.638;9.876;2022-09-11T08:16:06;101629.34;;;20.77;66.10
56400;BME280;42298;53.638;9.876;2022-09-11T08:18:32;101604.41;;;20.72;66.91
56400;BME280;42298;53.638;9.876;2022-09-11T08:21:04;101608.84;;;20.73;66.22
56400;BME280;42298;53.638;9.876;2022-09-11T08:23:31;101632.00;;;20.86;66.70
56400;BME280;42298;53.638;9.876;2022-09-11T08:26:07;101645.25;;;21.01;66.23
56400;BME280;42298;53.638;9.876;2022-09-11T08:28:34;101641.38;;;21.06;66.31
56400;BME280;42298;53.638;9.876;2022-09-11T08:31:00;101651.25;;;21.15;66.45
56400;BME280;42298;53.638;9.876;2022-09-11T08:33:29;101648.00;;;21.29;65.82
56400;BME280;42298;53.638;9.876;2022-09-11T08:35:59;101649.66;;;21.45;65.54
56400;BME280;42298;53.638;9.876;2022-09-11T08:38:25;101634.28;;;21.24;65.05
56400;BME280;42298;53.638;9.876;2022-09-11T08:40:51;101633.63;;;21.30;64.80
56400;BME280;42298;53.638;9.876;2022-09-11T08:43:22;101653.44;;;21.53;64.16
56400;BME280;42298;53.638;9.876;2022-09-11T08:45:54;101650.66;;;21.84;64.02
56400;BME280;42298;53.638;9.876;2022-09-11T08:51:13;101647.66;;;22.62;60.65
56400;BME280;42298;53.638;9.876;2022-09-11T08:53:40;101624.25;;;23.15;58.15
56400;BME280;42298;53.638;9.876;2022-09-11T08:56:14;101657.59;;;23.58;57.57
56400;BME280;42298;53.638;9.876;2022-09-11T09:01:22;101675.00;;;24.12;55.46
56400;BME280;42298;53.638;9.876;2022-09-11T09:06:29;101666.94;;;24.37;54.86
56400;BME280;42298;53.638;9.876;2022-09-11T09:12:09;101653.19;;;25.27;50.78
56400;BME280;42298;53.638;9.876;2022-09-11T09:17:43;101657.56;;;24.59;51.57
56400;BME280;42298;53.638;9.876;2022-09-11T09:20:18;101670.00;;;24.84;52.49
56400;BME280;42298;53.638;9.876;2022-09-11T09:22:54;101662.22;;;25.43;51.46
56400;BME280;42298;53.638;9.876;2022-09-11T09:25:22;101658.56;;;25.83;50.74
56400;BME280;42298;53.638;9.876;2022-09-11T09:27:51;101657.19;;;25.63;50.00
56400;BME280;42298;53.638;9.876;2022-09-11T09:30:21;101656.47;;;25.33;50.03
56400;BME280;42298;53.638;9.876;2022-09-11T09:33:10;101637.09;;;25.28;49.52
56400;BME280;42298;53.638;9.876;2022-09-11T09:35:43;101644.25;;;25.58;49.91
56400;BME280;42298;53.638;9.876;2022-09-11T09:38:14;101674.72;;;25.89;49.34
56400;BME280;42298;53.638;9.876;2022-09-11T09:41:05;101627.09;;;25.81;48.60
56400;BME280;42298;53.638;9.876;2022-09-11T09:46:25;101675.03;;;25.74;49.33
56400;BME280;42298;53.638;9.876;2022-09-11T09:48:55;101669.81;;;25.36;49.88
56400;BME280;42298;53.638;9.876;2022-09-11T09:51:21;101631.75;;;24.83;50.46
56400;BME280;42298;53.638;9.876;2022-09-11T09:53:50;101653.84;;;24.81;50.81
56400;BME280;42298;53.638;9.876;2022-09-11T09:56:18;101628.88;;;24.79;51.24
56400;BME280;42298;53.638;9.876;2022-09-11T09:59:00;101658.97;;;25.38;49.76
56400;BME280;42298;53.638;9.876;2022-09-11T10:04:20;101649.44;;;26.00;48.06
56400;BME280;42298;53.638;9.876;2022-09-11T10:06:49;101647.06;;;25.58;48.52
56400;BME280;42298;53.638;9.876;2022-09-11T10:09:26;101666.31;;;25.46;48.61
56400;BME280;42298;53.638;9.876;2022-09-11T10:18:40;101655.94;;;25.60;48.72
56400;BME280;42298;53.638;9.876;2022-09-11T10:21:29;101668.47;;;25.63;48.06
56400;BME280;42298;53.638;9.876;2022-09-11T10:24:33;101649.09;;;25.58;48.68
56400;BME280;42298;53.638;9.876;2022-09-11T10:53:28;101662.44;;;26.15;46.66
56400;BME280;42298;53.638;9.876;2022-09-11T10:55:58;101650.97;;;25.90;46.06
56400;BME280;42298;53.638;9.876;2022-09-11T10:58:32;101628.63;;;25.71;47.04
56400;BME280;42298;53.638;9.876;2022-09-11T11:01:00;101657.41;;;25.91;46.79
56400;BME280;42298;53.638;9.876;2022-09-11T11:03:27;101633.84;;;25.69;46.89
56400;BME280;42298;53.638;9.876;2022-09-11T11:05:57;101657.31;;;25.77;47.07
56400;BME280;42298;53.638;9.876;2022-09-11T11:08:49;101669.72;;;25.69;47.30
56400;BME280;42298;53.638;9.876;2022-09-11T11:17:12;101652.28;;;25.20;48.38
56400;BME280;42298;53.638;9.876;2022-09-11T11:20:06;101669.41;;;25.37;48.08
56400;BME280;42298;53.638;9.876;2022-09-11T11:31:07;101673.16;;;26.46;42.89
56400;BME280;42298;53.638;9.876;2022-09-11T11:36:47;101671.69;;;26.73;44.39
56400;BME280;42298;53.638;9.876;2022-09-11T11:39:22;101677.06;;;27.06;44.26
56400;BME280;42298;53.638;9.876;2022-09-11T11:42:08;101644.78;;;27.14;43.99
56400;BME280;42298;53.638;9.876;2022-09-11T11:44:44;101669.84;;;27.23;43.42
56400;BME280;42298;53.638;9.876;2022-09-11T11:47:12;101657.22;;;26.89;43.46
56400;BME280;42298;53.638;9.876;2022-09-11T11:49:51;101680.22;;;26.80;43.40
56400;BME280;42298;53.638;9.876;2022-09-11T11:57:38;101675.31;;;26.09;44.92
56400;BME280;42298;53.638;9.876;2022-09-11T12:00:10;101654.06;;;25.75;45.44
56400;BME280;42298;53.638;9.876;2022-09-11T12:02:53;101674.47;;;25.58;45.32
56400;BME280;42298;53.638;9.876;2022-09-11T12:05:30;101663.19;;;25.21;46.38
56400;BME280;42298;53.638;9.876;2022-09-11T12:07:57;101662.59;;;25.38;47.06
56400;BME280;42298;53.638;9.876;2022-09-11T12:13:00;101665.63;;;25.63;46.43
56400;BME280;42298;53.638;9.876;2022-09-11T12:15:28;101641.50;;;25.69;46.39
56400;BME280;42298;53.638;9.876;2022-09-11T12:20:42;101636.97;;;26.04;44.24
56400;BME280;42298;53.638;9.876;2022-09-11T12:28:32;101665.63;;;26.68;43.30
56400;BME280;42298;53.638;9.876;2022-09-11T12:31:07;101681.34;;;26.65;44.94
56400;BME280;42298;53.638;9.876;2022-09-11T12:38:48;101665.34;;;25.75;44.74
56400;BME280;42298;53.638;9.876;2022-09-11T12:41:23;101652.88;;;25.79;43.91
56400;BME280;42298;53.638;9.876;2022-09-11T12:43:52;101654.78;;;25.68;44.79
56400;BME280;42298;53.638;9.876;2022-09-11T12:48:57;101654.69;;;25.54;44.07
56400;BME280;42298;53.638;9.876;2022-09-11T12:54:00;101683.72;;;25.55;44.62
56400;BME280;42298;53.638;9.876;2022-09-11T12:56:31;101642.44;;;25.36;44.68
56400;BME280;42298;53.638;9.876;2022-09-11T12:59:02;101662.22;;;25.40;44.84
56400;BME280;42298;53.638;9.876;2022-09-11T13:01:42;101661.06;;;25.11;44.68
56400;BME280;42298;53.638;9.876;2022-09-11T13:09:18;101618.41;;;24.20;46.18
56400;BME280;42298;53.638;9.876;2022-09-11T13:11:48;101618.31;;;24.13;46.66
56400;BME280;42298;53.638;9.876;2022-09-11T13:16:59;101640.47;;;24.45;46.36
56400;BME280;42298;53.638;9.876;2022-09-11T13:19:33;101649.31;;;24.43;47.19
56400;BME280;42298;53.638;9.876;2022-09-11T13:22:00;101647.63;;;24.38;47.83
56400;BME280;42298;53.638;9.876;2022-09-11T13:24:29;101653.03;;;24.51;47.63
56400;BME280;42298;53.638;9.876;2022-09-11T13:29:32;101623.44;;;24.64;48.43
56400;BME280;42298;53.638;9.876;2022-09-11T13:32:04;101617.94;;;24.74;47.28
56400;BME280;42298;53.638;9.876;2022-09-11T13:34:32;101613.63;;;24.84;47.58
56400;BME280;42298;53.638;9.876;2022-09-11T13:37:07;101607.72;;;24.96;46.26
56400;BME280;42298;53.638;9.876;2022-09-11T13:39:36;101629.56;;;25.06;46.14
56400;BME280;42298;53.638;9.876;2022-09-11T13:42:11;101648.22;;;24.81;47.32
56400;BME280;42298;53.638;9.876;2022-09-11T13:44:42;101617.47;;;24.69;47.25
56400;BME280;42298;53.638;9.876;2022-09-11T13:47:21;101638.53;;;24.78;47.19
56400;BME280;42298;53.638;9.876;2022-09-11T13:49:48;101595.97;;;24.57;46.57
56400;BME280;42298;53.638;9.876;2022-09-11T13:52:15;101629.97;;;24.68;47.70
56400;BME280;42298;53.638;9.876;2022-09-11T13:54:46;101612.38;;;24.48;46.57
56400;BME280;42298;53.638;9.876;2022-09-11T13:57:23;101628.56;;;24.55;45.96
56400;BME280;42298;53.638;9.876;2022-09-11T14:02:48;101624.63;;;24.63;46.42
56400;BME280;42298;53.638;9.876;2022-09-11T14:05:22;101600.72;;;24.50;44.79
56400;BME280;42298;53.638;9.876;2022-09-11T14:10:30;101611.84;;;24.69;45.33
56400;BME280;42298;53.638;9.876;2022-09-11T14:13:17;101647.00;;;24.82;45.50
56400;BME280;42298;53.638;9.876;2022-09-11T14:16:03;101641.00;;;24.83;45.92
56400;BME280;42298;53.638;9.876;2022-09-11T14:20:59;101608.19;;;24.65;45.92
56400;BME280;42298;53.638;9.876;2022-09-11T14:23:27;101590.91;;;24.70;46.42
56400;BME280;42298;53.638;9.876;2022-09-11T14:29:05;101618.94;;;24.89;46.33
56400;BME280;42298;53.638;9.876;2022-09-11T14:31:47;101627.03;;;24.94;46.38
56400;BME280;42298;53.638;9.876;2022-09-11T14:34:21;101621.09;;;25.02;46.70
56400;BME280;42298;53.638;9.876;2022-09-11T14:36:52;101590.69;;;24.85;46.73
56400;BME280;42298;53.638;9.876;2022-09-11T14:39:24;101599.72;;;24.98;46.54
56400;BME280;42298;53.638;9.876;2022-09-11T14:41:52;101607.78;;;24.99;45.22
56400;BME280;42298;53.638;9.876;2022-09-11T14:44:17;101598.97;;;24.68;45.92
56400;BME280;42298;53.638;9.876;2022-09-11T14:46:44;101621.41;;;24.61;46.05
56400;BME280;42298;53.638;9.876;2022-09-11T14:49:09;101634.97;;;24.52;46.21
56400;BME280;42298;53.638;9.876;2022-09-11T14:51:36;101611.22;;;24.23;46.94
56400;BME280;42298;53.638;9.876;2022-09-11T14:54:03;101606.25;;;24.13;47.31
56400;BME280;42298;53.638;9.876;2022-09-11T14:56:29;101615.19;;;24.18;47.12
56400;BME280;42298;53.638;9.876;2022-09-11T14:58:54;101581.97;;;24.01;47.18
56400;BME280;42298;53.638;9.876;2022-09-11T15:01:19;101600.72;;;24.20;47.41
56400;BME280;42298;53.638;9.876;2022-09-11T15:03:45;101609.59;;;24.22;46.92
56400;BME280;42298;53.638;9.876;2022-09-11T15:06:15;101613.69;;;24.28;46.90
56400;BME280;42298;53.638;9.876;2022-09-11T15:08:43;101592.69;;;24.22;47.17
56400;BME280;42298;53.638;9.876;2022-09-11T15:11:10;101579.13;;;24.27;46.62
56400;BME280;42298;53.638;9.876;2022-09-11T15:13:35;101592.13;;;24.39;46.87
56400;BME280;42298;53.638;9.876;2022-09-11T15:16:00;101608.88;;;24.58;46.32
56400;BME280;42298;53.638;9.876;2022-09-11T15:18:26;101594.00;;;24.58;46.84
56400;BME280;42298;53.638;9.876;2022-09-11T15:20:52;101580.06;;;24.38;46.70
56400;BME280;42298;53.638;9.876;2022-09-11T15:23:17;101591.00;;;24.44;46.86
56400;BME280;42298;53.638;9.876;2022-09-11T15:25:42;101594.50;;;24.37;46.77
56400;BME280;42298;53.638;9.876;2022-09-11T15:28:08;101593.19;;;24.27;47.69
56400;BME280;42298;53.638;9.876;2022-09-11T15:30:35;101593.47;;;24.19;47.99